Aldenville, Pennsylvania
Current Conditions -  °F | °C
As of 9:35 PM on Wednesday 26 Nov 2014 (Local Time) from KMSV Reporting Station
Overcast Overcast  
Wind Chill: 22°   Ceiling: 3700
Heat Index: 30°   Visibility: 4mi
Dew Point: 28°   Wind: 9mph
Humidity: 93%   Direction: 320°NW
Pressure: 29.84"   Gusts: NA
Location:  41.65°N, 75.36°W
Report Text: KMSV 270235Z AUTO 32008KT 4SM SCT015 OVC037 M01/M02 A2984 RMK AO1
Loading
Personal Weather Stations






























Interactive Weather Map New forecast layout! Learn more

10-Day Weather Forecast

Advertisements
Track Severe Weather on mobile